sensor_id;sensor_type;location;lat;lon;timestamp;P1;durP1;ratioP1;P2;durP2;ratioP2
8268;SDS011;4174;48.304;16.364;2023-09-19T00:05:21;3.40;;;0.60;;
8268;SDS011;4174;48.304;16.364;2023-09-19T00:11:24;3.57;;;0.70;;
8268;SDS011;4174;48.304;16.364;2023-09-19T00:17:27;4.03;;;0.70;;
8268;SDS011;4174;48.304;16.364;2023-09-19T00:23:30;4.00;;;0.80;;
8268;SDS011;4174;48.304;16.364;2023-09-19T00:29:33;3.63;;;0.87;;
8268;SDS011;4174;48.304;16.364;2023-09-19T00:35:38;4.25;;;0.80;;
8268;SDS011;4174;48.304;16.364;2023-09-19T00:41:42;3.60;;;0.80;;
8268;SDS011;4174;48.304;16.364;2023-09-19T00:47:47;4.17;;;0.80;;
8268;SDS011;4174;48.304;16.364;2023-09-19T00:53:49;3.60;;;0.90;;
8268;SDS011;4174;48.304;16.364;2023-09-19T00:59:53;3.43;;;0.80;;
8268;SDS011;4174;48.304;16.364;2023-09-19T01:05:56;3.00;;;0.60;;
8268;SDS011;4174;48.304;16.364;2023-09-19T01:12:00;4.00;;;0.70;;
8268;SDS011;4174;48.304;16.364;2023-09-19T01:18:03;3.80;;;0.70;;
8268;SDS011;4174;48.304;16.364;2023-09-19T01:31:03;3.05;;;0.60;;
8268;SDS011;4174;48.304;16.364;2023-09-19T01:37:05;4.00;;;0.80;;
8268;SDS011;4174;48.304;16.364;2023-09-19T01:43:17;2.90;;;0.50;;
8268;SDS011;4174;48.304;16.364;2023-09-19T01:49:36;3.63;;;0.70;;
8268;SDS011;4174;48.304;16.364;2023-09-19T01:55:37;3.35;;;0.60;;
8268;SDS011;4174;48.304;16.364;2023-09-19T02:01:38;3.47;;;0.50;;
8268;SDS011;4174;48.304;16.364;2023-09-19T02:07:41;2.67;;;0.47;;
8268;SDS011;4174;48.304;16.364;2023-09-19T02:13:45;2.57;;;0.50;;
8268;SDS011;4174;48.304;16.364;2023-09-19T02:19:48;3.10;;;0.50;;
8268;SDS011;4174;48.304;16.364;2023-09-19T02:25:52;3.73;;;0.60;;
8268;SDS011;4174;48.304;16.364;2023-09-19T02:31:55;2.87;;;0.60;;
8268;SDS011;4174;48.304;16.364;2023-09-19T02:37:59;3.12;;;0.55;;
8268;SDS011;4174;48.304;16.364;2023-09-19T02:44:03;3.20;;;0.57;;
8268;SDS011;4174;48.304;16.364;2023-09-19T02:50:08;2.62;;;0.50;;
8268;SDS011;4174;48.304;16.364;2023-09-19T02:56:12;3.03;;;0.50;;
8268;SDS011;4174;48.304;16.364;2023-09-19T03:02:15;3.80;;;0.50;;
8268;SDS011;4174;48.304;16.364;2023-09-19T03:08:19;2.83;;;0.50;;
8268;SDS011;4174;48.304;16.364;2023-09-19T03:14:22;3.60;;;0.60;;
8268;SDS011;4174;48.304;16.364;2023-09-19T03:20:26;3.63;;;0.70;;
8268;SDS011;4174;48.304;16.364;2023-09-19T03:26:30;3.30;;;0.62;;
8268;SDS011;4174;48.304;16.364;2023-09-19T03:32:34;3.07;;;0.60;;
8268;SDS011;4174;48.304;16.364;2023-09-19T03:38:37;3.45;;;0.70;;
8268;SDS011;4174;48.304;16.364;2023-09-19T03:44:41;4.03;;;0.80;;
8268;SDS011;4174;48.304;16.364;2023-09-19T03:50:45;4.03;;;1.00;;
8268;SDS011;4174;48.304;16.364;2023-09-19T03:56:48;4.37;;;0.90;;
8268;SDS011;4174;48.304;16.364;2023-09-19T04:02:52;5.73;;;1.00;;
8268;SDS011;4174;48.304;16.364;2023-09-19T04:08:55;5.77;;;1.00;;
8268;SDS011;4174;48.304;16.364;2023-09-19T04:14:59;3.90;;;0.90;;
8268;SDS011;4174;48.304;16.364;2023-09-19T04:21:03;4.32;;;1.10;;
8268;SDS011;4174;48.304;16.364;2023-09-19T04:27:05;5.27;;;1.10;;
8268;SDS011;4174;48.304;16.364;2023-09-19T04:33:10;4.67;;;1.10;;
8268;SDS011;4174;48.304;16.364;2023-09-19T04:39:14;4.47;;;1.00;;
8268;SDS011;4174;48.304;16.364;2023-09-19T04:45:19;4.90;;;1.10;;
8268;SDS011;4174;48.304;16.364;2023-09-19T04:51:23;4.00;;;1.10;;
8268;SDS011;4174;48.304;16.364;2023-09-19T04:57:26;6.57;;;1.30;;
8268;SDS011;4174;48.304;16.364;2023-09-19T05:03:30;5.00;;;1.20;;
8268;SDS011;4174;48.304;16.364;2023-09-19T05:09:34;5.20;;;1.10;;
8268;SDS011;4174;48.304;16.364;2023-09-19T05:15:38;4.80;;;1.20;;
8268;SDS011;4174;48.304;16.364;2023-09-19T05:21:41;4.90;;;1.23;;
8268;SDS011;4174;48.304;16.364;2023-09-19T05:27:45;5.97;;;1.40;;
8268;SDS011;4174;48.304;16.364;2023-09-19T05:33:48;5.37;;;1.70;;
8268;SDS011;4174;48.304;16.364;2023-09-19T05:39:52;6.28;;;1.50;;
8268;SDS011;4174;48.304;16.364;2023-09-19T05:45:55;5.20;;;1.20;;
8268;SDS011;4174;48.304;16.364;2023-09-19T05:51:58;5.20;;;1.30;;
8268;SDS011;4174;48.304;16.364;2023-09-19T05:58:02;4.80;;;1.60;;
8268;SDS011;4174;48.304;16.364;2023-09-19T06:04:05;5.45;;;1.30;;
8268;SDS011;4174;48.304;16.364;2023-09-19T06:10:09;5.37;;;1.30;;
8268;SDS011;4174;48.304;16.364;2023-09-19T06:16:13;5.60;;;1.37;;
8268;SDS011;4174;48.304;16.364;2023-09-19T06:22:16;6.27;;;1.30;;
8268;SDS011;4174;48.304;16.364;2023-09-19T06:28:19;5.20;;;1.13;;
8268;SDS011;4174;48.304;16.364;2023-09-19T06:34:23;4.27;;;1.00;;
8268;SDS011;4174;48.304;16.364;2023-09-19T06:40:26;5.68;;;1.00;;
8268;SDS011;4174;48.304;16.364;2023-09-19T06:46:30;4.67;;;1.03;;
8268;SDS011;4174;48.304;16.364;2023-09-19T06:52:33;5.13;;;1.10;;
8268;SDS011;4174;48.304;16.364;2023-09-19T06:58:36;4.80;;;1.00;;
8268;SDS011;4174;48.304;16.364;2023-09-19T07:04:40;4.97;;;1.00;;
8268;SDS011;4174;48.304;16.364;2023-09-19T07:10:44;4.20;;;1.00;;
8268;SDS011;4174;48.304;16.364;2023-09-19T07:16:49;4.90;;;1.10;;
8268;SDS011;4174;48.304;16.364;2023-09-19T07:22:53;5.67;;;1.20;;
8268;SDS011;4174;48.304;16.364;2023-09-19T07:28:56;5.62;;;1.12;;
8268;SDS011;4174;48.304;16.364;2023-09-19T07:35:00;5.77;;;1.23;;
8268;SDS011;4174;48.304;16.364;2023-09-19T07:41:03;5.03;;;1.30;;
8268;SDS011;4174;48.304;16.364;2023-09-19T07:47:07;5.45;;;1.20;;
8268;SDS011;4174;48.304;16.364;2023-09-19T07:53:10;6.17;;;1.30;;
8268;SDS011;4174;48.304;16.364;2023-09-19T07:59:14;5.50;;;1.30;;
8268;SDS011;4174;48.304;16.364;2023-09-19T08:05:18;4.25;;;1.40;;
8268;SDS011;4174;48.304;16.364;2023-09-19T08:11:22;6.35;;;1.33;;
8268;SDS011;4174;48.304;16.364;2023-09-19T08:17:26;5.25;;;1.45;;
8268;SDS011;4174;48.304;16.364;2023-09-19T08:23:29;5.77;;;1.53;;
8268;SDS011;4174;48.304;16.364;2023-09-19T08:29:33;4.73;;;1.50;;
8268;SDS011;4174;48.304;16.364;2023-09-19T08:35:37;5.00;;;1.40;;
8268;SDS011;4174;48.304;16.364;2023-09-19T08:41:40;5.70;;;1.30;;
8268;SDS011;4174;48.304;16.364;2023-09-19T08:47:45;4.78;;;1.50;;
8268;SDS011;4174;48.304;16.364;2023-09-19T08:53:54;4.82;;;1.33;;
8268;SDS011;4174;48.304;16.364;2023-09-19T09:00:05;4.45;;;1.30;;
8268;SDS011;4174;48.304;16.364;2023-09-19T09:06:12;4.60;;;1.40;;
8268;SDS011;4174;48.304;16.364;2023-09-19T09:12:13;4.37;;;1.20;;
8268;SDS011;4174;48.304;16.364;2023-09-19T09:18:16;4.82;;;1.30;;
8268;SDS011;4174;48.304;16.364;2023-09-19T09:30:33;4.62;;;1.20;;
8268;SDS011;4174;48.304;16.364;2023-09-19T09:36:38;4.50;;;1.30;;
8268;SDS011;4174;48.304;16.364;2023-09-19T09:42:39;4.70;;;1.40;;
8268;SDS011;4174;48.304;16.364;2023-09-19T09:48:42;5.00;;;1.20;;
8268;SDS011;4174;48.304;16.364;2023-09-19T10:00:59;5.27;;;1.30;;
8268;SDS011;4174;48.304;16.364;2023-09-19T10:07:03;4.90;;;1.20;;
8268;SDS011;4174;48.304;16.364;2023-09-19T10:13:08;5.50;;;1.15;;
8268;SDS011;4174;48.304;16.364;2023-09-19T10:19:09;5.13;;;1.20;;
8268;SDS011;4174;48.304;16.364;2023-09-19T10:25:12;5.30;;;1.20;;
8268;SDS011;4174;48.304;16.364;2023-09-19T10:31:18;6.07;;;1.30;;
8268;SDS011;4174;48.304;16.364;2023-09-19T10:37:19;4.80;;;1.20;;
8268;SDS011;4174;48.304;16.364;2023-09-19T10:43:22;5.43;;;1.23;;
8268;SDS011;4174;48.304;16.364;2023-09-19T10:49:23;4.70;;;1.20;;
8268;SDS011;4174;48.304;16.364;2023-09-19T10:55:27;5.37;;;1.30;;
8268;SDS011;4174;48.304;16.364;2023-09-19T11:07:58;4.35;;;1.30;;
8268;SDS011;4174;48.304;16.364;2023-09-19T11:20:17;4.10;;;1.40;;
8268;SDS011;4174;48.304;16.364;2023-09-19T11:26:39;5.13;;;1.40;;
8268;SDS011;4174;48.304;16.364;2023-09-19T11:39:01;5.60;;;1.50;;
8268;SDS011;4174;48.304;16.364;2023-09-19T11:45:05;4.70;;;1.50;;
8268;SDS011;4174;48.304;16.364;2023-09-19T11:51:11;5.30;;;1.50;;
8268;SDS011;4174;48.304;16.364;2023-09-19T11:57:13;4.25;;;1.30;;
8268;SDS011;4174;48.304;16.364;2023-09-19T12:03:16;5.30;;;1.40;;
8268;SDS011;4174;48.304;16.364;2023-09-19T12:09:19;4.87;;;1.33;;
8268;SDS011;4174;48.304;16.364;2023-09-19T12:15:23;4.20;;;1.30;;
8268;SDS011;4174;48.304;16.364;2023-09-19T12:21:28;5.10;;;1.30;;
8268;SDS011;4174;48.304;16.364;2023-09-19T12:27:40;4.10;;;1.20;;
8268;SDS011;4174;48.304;16.364;2023-09-19T12:33:34;4.62;;;1.30;;
8268;SDS011;4174;48.304;16.364;2023-09-19T12:39:39;4.40;;;1.27;;
8268;SDS011;4174;48.304;16.364;2023-09-19T12:45:42;3.90;;;1.15;;
8268;SDS011;4174;48.304;16.364;2023-09-19T12:51:45;3.90;;;1.17;;
8268;SDS011;4174;48.304;16.364;2023-09-19T13:10:21;8.27;;;2.27;;
8268;SDS011;4174;48.304;16.364;2023-09-19T13:16:24;6.17;;;1.60;;
8268;SDS011;4174;48.304;16.364;2023-09-19T13:28:40;5.50;;;1.60;;
8268;SDS011;4174;48.304;16.364;2023-09-19T13:34:42;5.47;;;1.50;;
8268;SDS011;4174;48.304;16.364;2023-09-19T13:40:46;4.83;;;1.70;;
8268;SDS011;4174;48.304;16.364;2023-09-19T13:46:49;5.77;;;1.60;;
8268;SDS011;4174;48.304;16.364;2023-09-19T13:52:53;6.40;;;1.80;;
8268;SDS011;4174;48.304;16.364;2023-09-19T13:58:56;6.10;;;1.73;;
8268;SDS011;4174;48.304;16.364;2023-09-19T14:05:00;4.55;;;1.65;;
8268;SDS011;4174;48.304;16.364;2023-09-19T14:11:06;4.83;;;1.50;;
8268;SDS011;4174;48.304;16.364;2023-09-19T14:17:09;4.82;;;1.60;;
8268;SDS011;4174;48.304;16.364;2023-09-19T14:23:12;5.57;;;1.70;;
8268;SDS011;4174;48.304;16.364;2023-09-19T14:29:16;5.95;;;1.80;;
8268;SDS011;4174;48.304;16.364;2023-09-19T14:35:19;5.43;;;1.60;;
8268;SDS011;4174;48.304;16.364;2023-09-19T14:41:22;5.40;;;1.50;;
8268;SDS011;4174;48.304;16.364;2023-09-19T14:47:24;4.80;;;1.48;;
8268;SDS011;4174;48.304;16.364;2023-09-19T14:53:28;4.37;;;1.50;;
8268;SDS011;4174;48.304;16.364;2023-09-19T14:59:31;5.03;;;1.40;;
8268;SDS011;4174;48.304;16.364;2023-09-19T15:05:34;4.60;;;1.40;;
8268;SDS011;4174;48.304;16.364;2023-09-19T15:11:37;4.33;;;1.33;;
8268;SDS011;4174;48.304;16.364;2023-09-19T15:17:41;5.75;;;1.95;;
8268;SDS011;4174;48.304;16.364;2023-09-19T15:23:45;4.27;;;1.30;;
8268;SDS011;4174;48.304;16.364;2023-09-19T15:29:48;4.33;;;1.33;;
8268;SDS011;4174;48.304;16.364;2023-09-19T15:35:51;4.53;;;1.40;;
8268;SDS011;4174;48.304;16.364;2023-09-19T15:41:55;4.87;;;1.30;;
8268;SDS011;4174;48.304;16.364;2023-09-19T15:47:58;4.37;;;1.30;;
8268;SDS011;4174;48.304;16.364;2023-09-19T15:54:06;4.53;;;1.30;;
8268;SDS011;4174;48.304;16.364;2023-09-19T16:00:08;6.10;;;2.40;;
8268;SDS011;4174;48.304;16.364;2023-09-19T16:06:15;5.72;;;2.10;;
8268;SDS011;4174;48.304;16.364;2023-09-19T16:12:17;4.28;;;1.10;;
8268;SDS011;4174;48.304;16.364;2023-09-19T16:18:21;4.30;;;1.00;;
8268;SDS011;4174;48.304;16.364;2023-09-19T16:24:25;5.30;;;1.10;;
8268;SDS011;4174;48.304;16.364;2023-09-19T16:30:27;3.53;;;1.00;;
8268;SDS011;4174;48.304;16.364;2023-09-19T16:36:31;4.00;;;0.90;;
8268;SDS011;4174;48.304;16.364;2023-09-19T16:42:35;4.97;;;1.05;;
8268;SDS011;4174;48.304;16.364;2023-09-19T16:48:39;4.27;;;1.00;;
8268;SDS011;4174;48.304;16.364;2023-09-19T16:54:41;3.87;;;0.93;;
8268;SDS011;4174;48.304;16.364;2023-09-19T17:00:44;4.67;;;1.00;;
8268;SDS011;4174;48.304;16.364;2023-09-19T17:06:48;6.60;;;1.10;;
8268;SDS011;4174;48.304;16.364;2023-09-19T17:12:53;3.60;;;0.90;;
8268;SDS011;4174;48.304;16.364;2023-09-19T17:18:57;4.53;;;1.00;;
8268;SDS011;4174;48.304;16.364;2023-09-19T17:25:01;5.00;;;1.30;;
8268;SDS011;4174;48.304;16.364;2023-09-19T17:31:09;5.62;;;1.00;;
8268;SDS011;4174;48.304;16.364;2023-09-19T17:37:13;6.12;;;1.10;;
8268;SDS011;4174;48.304;16.364;2023-09-19T17:43:19;5.93;;;1.10;;
8268;SDS011;4174;48.304;16.364;2023-09-19T17:49:23;4.60;;;1.10;;
8268;SDS011;4174;48.304;16.364;2023-09-19T17:55:27;4.03;;;0.97;;
8268;SDS011;4174;48.304;16.364;2023-09-19T18:01:30;5.87;;;1.77;;
8268;SDS011;4174;48.304;16.364;2023-09-19T18:07:34;5.07;;;1.10;;
8268;SDS011;4174;48.304;16.364;2023-09-19T18:13:37;4.15;;;0.95;;
8268;SDS011;4174;48.304;16.364;2023-09-19T18:19:41;3.97;;;1.10;;
8268;SDS011;4174;48.304;16.364;2023-09-19T18:25:46;4.68;;;0.95;;
8268;SDS011;4174;48.304;16.364;2023-09-19T18:31:49;6.65;;;2.03;;
8268;SDS011;4174;48.304;16.364;2023-09-19T18:37:53;5.28;;;1.50;;
8268;SDS011;4174;48.304;16.364;2023-09-19T18:43:56;4.25;;;1.10;;
8268;SDS011;4174;48.304;16.364;2023-09-19T18:50:01;4.40;;;1.00;;
8268;SDS011;4174;48.304;16.364;2023-09-19T18:56:04;4.27;;;1.07;;
8268;SDS011;4174;48.304;16.364;2023-09-19T19:02:07;4.80;;;1.10;;
8268;SDS011;4174;48.304;16.364;2023-09-19T19:08:12;5.12;;;1.10;;
8268;SDS011;4174;48.304;16.364;2023-09-19T19:14:15;4.57;;;1.10;;
8268;SDS011;4174;48.304;16.364;2023-09-19T19:20:19;8.07;;;0.90;;
8268;SDS011;4174;48.304;16.364;2023-09-19T19:26:22;4.77;;;1.37;;
8268;SDS011;4174;48.304;16.364;2023-09-19T19:32:25;3.90;;;0.80;;
8268;SDS011;4174;48.304;16.364;2023-09-19T19:38:28;3.93;;;0.80;;
8268;SDS011;4174;48.304;16.364;2023-09-19T19:44:32;3.17;;;0.70;;
8268;SDS011;4174;48.304;16.364;2023-09-19T19:50:37;4.30;;;0.80;;
8268;SDS011;4174;48.304;16.364;2023-09-19T19:56:38;6.22;;;0.90;;
8268;SDS011;4174;48.304;16.364;2023-09-19T20:02:43;3.20;;;0.70;;
8268;SDS011;4174;48.304;16.364;2023-09-19T20:08:45;5.17;;;0.80;;
8268;SDS011;4174;48.304;16.364;2023-09-19T20:14:47;3.60;;;0.90;;
8268;SDS011;4174;48.304;16.364;2023-09-19T20:20:52;3.80;;;0.80;;
8268;SDS011;4174;48.304;16.364;2023-09-19T20:26:56;3.33;;;0.80;;
8268;SDS011;4174;48.304;16.364;2023-09-19T20:32:59;3.73;;;0.80;;
8268;SDS011;4174;48.304;16.364;2023-09-19T20:39:04;3.13;;;0.70;;
8268;SDS011;4174;48.304;16.364;2023-09-19T20:45:08;4.70;;;0.70;;
8268;SDS011;4174;48.304;16.364;2023-09-19T20:51:13;4.82;;;0.90;;
8268;SDS011;4174;48.304;16.364;2023-09-19T20:57:17;5.77;;;0.80;;
8268;SDS011;4174;48.304;16.364;2023-09-19T21:03:20;4.00;;;0.80;;
8268;SDS011;4174;48.304;16.364;2023-09-19T21:09:24;4.33;;;0.80;;
8268;SDS011;4174;48.304;16.364;2023-09-19T21:15:28;6.40;;;0.90;;
8268;SDS011;4174;48.304;16.364;2023-09-19T21:21:33;4.00;;;0.80;;
8268;SDS011;4174;48.304;16.364;2023-09-19T21:27:37;5.12;;;0.90;;
8268;SDS011;4174;48.304;16.364;2023-09-19T21:33:41;3.50;;;0.67;;
8268;SDS011;4174;48.304;16.364;2023-09-19T21:39:43;3.90;;;0.60;;
8268;SDS011;4174;48.304;16.364;2023-09-19T21:45:47;3.90;;;0.80;;
8268;SDS011;4174;48.304;16.364;2023-09-19T21:51:51;4.53;;;0.80;;
8268;SDS011;4174;48.304;16.364;2023-09-19T21:57:54;5.70;;;0.77;;
8268;SDS011;4174;48.304;16.364;2023-09-19T22:03:57;3.00;;;0.60;;
8268;SDS011;4174;48.304;16.364;2023-09-19T22:10:00;4.43;;;0.70;;
8268;SDS011;4174;48.304;16.364;2023-09-19T22:16:04;4.33;;;0.80;;
8268;SDS011;4174;48.304;16.364;2023-09-19T22:22:07;4.83;;;0.70;;
8268;SDS011;4174;48.304;16.364;2023-09-19T22:28:11;4.50;;;0.80;;
8268;SDS011;4174;48.304;16.364;2023-09-19T22:34:14;3.53;;;0.70;;
8268;SDS011;4174;48.304;16.364;2023-09-19T22:40:18;3.83;;;0.70;;
8268;SDS011;4174;48.304;16.364;2023-09-19T22:46:23;3.53;;;0.70;;
8268;SDS011;4174;48.304;16.364;2023-09-19T22:52:28;5.75;;;0.80;;
8268;SDS011;4174;48.304;16.364;2023-09-19T22:58:32;5.13;;;0.80;;
8268;SDS011;4174;48.304;16.364;2023-09-19T23:04:35;4.07;;;0.80;;
8268;SDS011;4174;48.304;16.364;2023-09-19T23:10:41;4.53;;;0.90;;
8268;SDS011;4174;48.304;16.364;2023-09-19T23:16:46;4.05;;;1.00;;
8268;SDS011;4174;48.304;16.364;2023-09-19T23:23:05;3.90;;;0.80;;
8268;SDS011;4174;48.304;16.364;2023-09-19T23:29:08;5.68;;;0.80;;
8268;SDS011;4174;48.304;16.364;2023-09-19T23:35:11;3.70;;;0.90;;
8268;SDS011;4174;48.304;16.364;2023-09-19T23:41:15;4.20;;;0.80;;
8268;SDS011;4174;48.304;16.364;2023-09-19T23:47:19;4.80;;;0.80;;
8268;SDS011;4174;48.304;16.364;2023-09-19T23:53:22;4.93;;;1.27;;
8268;SDS011;4174;48.304;16.364;2023-09-19T23:59:26;3.73;;;0.97;;
